KAND/AND METAR and TAF weather

Enter ICAO airport designator
Station Type Date Time Source
KAND METAR 2021/07/29 17:56 UTC NOAA

KAND 291756Z AUTO 23005KT 10SM CLR 33/24 A3004 RMK AO2 SLP159 T03280239 10328 20244 58014


Station Type Date Time Source
KAND Decoded METAR 2021/07/29 17:56 UTC NOAA

ANDERSON COUNTY AIRPORT, SC, United States (KAND) 34-30N 82-43W 239M
Jul 29, 2021 - 01:56 PM EDT / 2021.07.29 1756 UTC
Wind: from the SW (230 degrees) at 6 MPH (5 KT):0
Visibility: 10 mile(s):0
Sky conditions: clear
Temperature: 91.0 F (32.8 C)
Heat index: 101.5 F (38.6 C):1
Dew Point: 75.0 F (23.9 C)
Relative Humidity: 59%
Pressure (altimeter): 30.04 in. Hg (1017 hPa)
Pressure tendency: 0.04 inches (1.4 hPa) lower than three hours ago
ob: KAND 291756Z AUTO 23005KT 10SM CLR 33/24 A3004 RMK AO2 SLP159 T03280239 10328 20244 58014
cycle: 18

Station Type Date Time Source
KAND TAF 2021/07/29 12:33 UTC NOAA

TAF KAND 291131Z 2912/3012 00000KT P6SM FEW250
FM291500 24005KT P6SM FEW250
FM291800 24007KT P6SM FEW250
FM300400 25003KT P6SM FEW150

Example: see airport list